Morton, Pennsylvania
Current Conditions -  °F | °C
As of 12:54 AM on Saturday 20 Dec 2014 (Local Time) from KPHL Reporting Station
Overcast Overcast  
Wind Chill: 34°   Ceiling: 3500
Heat Index: 34°   Visibility: 10mi
Dew Point: 20°   Wind: 3mph
Humidity: 56%   Direction: 270°W
Pressure: 30.21"   Gusts: NA
Location:  39.91°N, 75.32°W
Report Text: KPHL 200554Z 27003KT 10SM OVC035 01/M07 A3021 RMK AO2 SLP229 T00111067 10022 20006 58002
Loading
Personal Weather Stations






























Interactive Weather Map New forecast layout! Learn more

10-Day Weather Forecast

Advertisements
Track Severe Weather on mobile